Time;durP1;ratioP1;P1;durP2;ratioP2;P2;SDS_P1;SDS_P2;PMS_P1;PMS_P2;Temp;Humidity;BMP_temperature;BMP_pressure;BME280_temperature;BME280_humidity;BME280_pressure;Samples;Min_cycle;Max_cycle;Signal;HPM_P1;HPM_P2
2022/08/31 16:20:47;;;;;;;7.20;3.40;;;;;;;;;;7264478;19;20018;-82
2022/08/31 22:02:38;;;;;;;12.63;6.47;;;;;;;;;;7313637;19;20011;-79
2022/08/31 22:05:07;;;;;;;9.23;6.38;;;;;;;;;;7354938;19;20094;-79
2022/08/31 22:07:33;;;;;;;10.02;6.10;;;;;;;;;;7370894;19;20336;-78
2022/08/31 22:09:58;;;;;;;12.15;6.43;;;;;;;;;;7366810;19;20306;-79
2022/08/31 22:12:25;;;;;;;11.90;6.53;;;;;;;;;;7379678;19;20023;-79
2022/08/31 22:14:50;;;;;;;10.55;6.10;;;;;;;;;;7373764;19;20018;-80
2022/08/31 22:17:15;;;;;;;10.57;6.32;;;;;;;;;;7356620;19;20331;-78
2022/08/31 22:19:41;;;;;;;12.00;5.97;;;;;;;;;;7373593;19;20047;-78
2022/08/31 22:22:08;;;;;;;11.27;5.97;;;;;;;;;;7375704;19;20331;-79
2022/08/31 22:24:34;;;;;;;14.38;6.40;;;;;;;;;;7377199;19;20014;-79
2022/08/31 22:27:01;;;;;;;10.30;5.70;;;;;;;;;;7366611;19;20018;-79
2022/08/31 22:29:28;;;;;;;11.55;5.78;;;;;;;;;;7373532;19;20672;-78
2022/08/31 22:31:56;;;;;;;13.27;5.90;;;;;;;;;;7376703;19;20077;-78
2022/08/31 22:34:21;;;;;;;11.32;5.75;;;;;;;;;;7368036;19;20086;-79
2022/08/31 22:36:47;;;;;;;12.98;6.30;;;;;;;;;;7366932;19;20414;-78
2022/08/31 22:39:13;;;;;;;12.75;6.07;;;;;;;;;;7377837;19;20097;-78
2022/08/31 22:41:40;;;;;;;10.23;5.05;;;;;;;;;;7379916;19;20007;-78
2022/08/31 22:44:07;;;;;;;10.55;5.75;;;;;;;;;;7377866;19;20006;-78
2022/08/31 22:46:33;;;;;;;13.20;5.43;;;;;;;;;;7375515;19;20006;-79
2022/08/31 22:48:59;;;;;;;8.68;5.35;;;;;;;;;;7378331;19;20479;-78
2022/08/31 22:51:24;;;;;;;9.10;4.45;;;;;;;;;;7380289;19;20018;-78
2022/08/31 22:53:50;;;;;;;9.57;5.65;;;;;;;;;;7378299;19;20470;-78
2022/08/31 22:56:15;;;;;;;9.40;5.55;;;;;;;;;;7365892;19;20010;-78
2022/08/31 22:58:40;;;;;;;10.43;5.53;;;;;;;;;;7375598;19;20039;-79
2022/08/31 23:01:16;;;;;;;11.23;6.13;;;;;;;;;;7370936;19;19999;-78
2022/08/31 23:03:41;;;;;;;12.20;5.10;;;;;;;;;;7374679;19;20466;-79
2022/08/31 23:06:06;;;;;;;8.10;4.85;;;;;;;;;;7384018;19;20050;-79
2022/08/31 23:08:33;;;;;;;7.97;5.00;;;;;;;;;;7388413;19;20002;-78
2022/08/31 23:10:58;;;;;;;8.50;4.65;;;;;;;;;;7381098;19;20018;-78
2022/08/31 23:13:50;;;;;;;9.43;4.90;;;;;;;;;;7381346;19;20007;-78
2022/08/31 23:16:09;;;;;;;7.93;4.70;;;;;;;;;;7379620;19;20331;-79
2022/08/31 23:18:35;;;;;;;11.57;5.75;;;;;;;;;;7378074;19;20029;-79
2022/08/31 23:21:01;;;;;;;9.63;5.35;;;;;;;;;;7387229;19;20077;-78
2022/08/31 23:23:27;;;;;;;8.93;5.25;;;;;;;;;;7383729;19;20505;-78
2022/08/31 23:25:52;;;;;;;8.70;5.65;;;;;;;;;;7377412;19;20452;-78
2022/08/31 23:28:17;;;;;;;8.23;5.20;;;;;;;;;;7376148;19;20036;-79
2022/08/31 23:30:43;;;;;;;10.05;5.47;;;;;;;;;;7380567;19;20882;-79
2022/08/31 23:33:08;;;;;;;11.07;5.32;;;;;;;;;;7379037;19;20034;-78
2022/08/31 23:35:34;;;;;;;9.15;5.63;;;;;;;;;;7379795;19;20003;-79
2022/08/31 23:38:00;;;;;;;9.85;6.05;;;;;;;;;;7373161;19;20002;-78
2022/08/31 23:40:28;;;;;;;11.68;6.18;;;;;;;;;;7381808;19;20038;-78
2022/08/31 23:42:53;;;;;;;9.45;5.82;;;;;;;;;;7381768;19;20479;-79
2022/08/31 23:45:19;;;;;;;7.57;5.43;;;;;;;;;;7376549;19;20002;-78
2022/08/31 23:47:44;;;;;;;11.60;5.70;;;;;;;;;;7383436;19;20014;-79
2022/08/31 23:50:09;;;;;;;9.02;6.65;;;;;;;;;;7378537;19;20305;-78
2022/08/31 23:52:40;;;;;;;9.80;6.00;;;;;;;;;;7382103;19;20667;-78
2022/08/31 23:55:05;;;;;;;9.23;5.82;;;;;;;;;;7379643;19;20462;-78
2022/08/31 23:57:30;;;;;;;9.52;6.80;;;;;;;;;;7370579;19;20044;-79
2022/08/31 23:59:57;;;;;;;12.13;6.70;;;;;;;;;;7380180;19;20048;-78
